Time;durP1;ratioP1;P1;durP2;ratioP2;P2;SDS_P1;SDS_P2;PMS_P1;PMS_P2;Temp;Humidity;BMP_temperature;BMP_pressure;BME280_temperature;BME280_humidity;BME280_pressure;Samples;Min_cycle;Max_cycle;Signal;HPM_P1;HPM_P2
2022/01/09 00:01:53;;;;;;;0.40;0.40;;;0.40;99.90;;;;;;4435232;32;20093;-68
2022/01/09 00:04:19;;;;;;;0.43;0.43;;;0.50;99.90;;;;;;4440429;32;20497;-67
2022/01/09 00:06:44;;;;;;;1.05;0.70;;;0.40;99.90;;;;;;4440929;32;20063;-67
2022/01/09 00:09:10;;;;;;;0.47;0.47;;;0.40;99.90;;;;;;4440908;32;20081;-68
2022/01/09 00:11:35;;;;;;;0.40;0.40;;;0.40;99.90;;;;;;4440214;32;20073;-69
2022/01/09 00:14:01;;;;;;;0.65;0.65;;;0.40;99.90;;;;;;4444244;32;20085;-67
2022/01/09 00:16:26;;;;;;;1.85;1.05;;;0.40;99.90;;;;;;4444466;32;20116;-68
2022/01/09 00:18:52;;;;;;;0.47;0.47;;;0.30;99.90;;;;;;4440464;32;20080;-67
2022/01/09 00:21:18;;;;;;;0.95;0.88;;;0.30;99.90;;;;;;4440338;32;20069;-68
2022/01/09 00:23:45;;;;;;;0.50;0.50;;;0.40;99.90;;;;;;4442899;32;20866;-68
2022/01/09 00:26:11;;;;;;;0.90;0.90;;;0.40;99.90;;;;;;4440467;32;20085;-68
2022/01/09 00:28:37;;;;;;;0.95;0.85;;;0.40;99.90;;;;;;4443524;32;20073;-68
2022/01/09 00:31:02;;;;;;;0.50;0.50;;;0.50;99.90;;;;;;4442152;32;20085;-68
2022/01/09 00:33:28;;;;;;;0.55;0.55;;;0.40;99.90;;;;;;4433167;32;20065;-67
2022/01/09 00:35:53;;;;;;;0.30;0.30;;;0.40;99.90;;;;;;4444567;32;20061;-67
2022/01/09 00:38:20;;;;;;;0.50;0.50;;;0.30;99.90;;;;;;4444847;32;20513;-66
2022/01/09 00:40:45;;;;;;;3.00;1.60;;;0.30;99.90;;;;;;4432307;32;20423;-67
2022/01/09 00:43:11;;;;;;;1.75;1.05;;;0.30;99.90;;;;;;4439706;32;20085;-67
2022/01/09 00:45:37;;;;;;;0.40;0.40;;;0.30;99.90;;;;;;4443445;32;20160;-67
2022/01/09 00:48:04;;;;;;;0.70;0.70;;;0.40;99.90;;;;;;4440771;32;20131;-68
2022/01/09 00:50:29;;;;;;;0.40;0.40;;;0.30;99.90;;;;;;4438188;32;20578;-68
2022/01/09 00:52:55;;;;;;;0.47;0.47;;;0.40;99.90;;;;;;4442586;32;20079;-68
2022/01/09 00:55:20;;;;;;;2.90;1.30;;;0.50;99.90;;;;;;4439029;32;20069;-67
2022/01/09 00:57:46;;;;;;;0.40;0.40;;;0.50;99.90;;;;;;4444220;32;20073;-67
2022/01/09 01:00:13;;;;;;;0.47;0.47;;;0.60;99.90;;;;;;4445869;32;20065;-67
2022/01/09 01:02:39;;;;;;;0.30;0.30;;;0.50;99.90;;;;;;4443846;32;20501;-67
2022/01/09 01:05:06;;;;;;;0.45;0.45;;;0.50;99.90;;;;;;4446871;32;20069;-68
2022/01/09 01:07:32;;;;;;;0.77;0.77;;;0.60;99.90;;;;;;4445164;32;20080;-67
2022/01/09 01:09:58;;;;;;;0.60;0.60;;;0.60;99.90;;;;;;4445334;32;20434;-67
2022/01/09 01:12:25;;;;;;;5.40;1.65;;;0.60;99.90;;;;;;4444059;32;20105;-68
2022/01/09 01:14:51;;;;;;;0.50;0.50;;;0.60;99.90;;;;;;4443385;32;20078;-67
2022/01/09 01:17:16;;;;;;;0.43;0.43;;;0.50;99.90;;;;;;4442651;32;20514;-67
2022/01/09 01:19:42;;;;;;;0.60;0.60;;;0.60;99.90;;;;;;4444296;32;20116;-67
2022/01/09 01:22:08;;;;;;;0.73;0.73;;;0.60;99.90;;;;;;4443772;32;20081;-68
2022/01/09 01:24:36;;;;;;;0.45;0.45;;;0.60;99.90;;;;;;4445002;32;20077;-67
2022/01/09 01:27:02;;;;;;;0.30;0.30;;;0.60;99.90;;;;;;4443783;32;20367;-67
2022/01/09 01:29:28;;;;;;;0.43;0.43;;;0.50;99.90;;;;;;4445262;32;20753;-68
2022/01/09 01:31:53;;;;;;;0.50;0.50;;;0.40;99.90;;;;;;4442759;32;20072;-67
2022/01/09 01:34:18;;;;;;;0.40;0.40;;;0.30;99.90;;;;;;4444567;32;20096;-68
2022/01/09 01:36:44;;;;;;;0.50;0.50;;;0.40;99.90;;;;;;4444609;32;20519;-68
2022/01/09 01:39:10;;;;;;;0.40;0.40;;;0.40;99.90;;;;;;4442324;32;20191;-68
2022/01/09 01:41:36;;;;;;;0.47;0.47;;;0.40;99.90;;;;;;4442675;32;20065;-68
2022/01/09 01:44:03;;;;;;;0.85;0.85;;;0.40;99.90;;;;;;4435868;32;20058;-67
2022/01/09 01:46:31;;;;;;;0.40;0.40;;;0.30;99.90;;;;;;4442194;32;20517;-67
2022/01/09 01:48:56;;;;;;;0.45;0.45;;;0.30;99.90;;;;;;4443573;32;20064;-67
2022/01/09 01:51:22;;;;;;;0.77;0.77;;;0.40;99.90;;;;;;4441419;32;20533;-67
2022/01/09 01:53:49;;;;;;;0.50;0.50;;;0.30;99.90;;;;;;4443133;32;20073;-67
2022/01/09 01:56:19;;;;;;;0.40;0.40;;;0.30;99.90;;;;;;4426617;32;20450;-68
2022/01/09 01:58:45;;;;;;;0.82;0.82;;;0.30;99.90;;;;;;4443491;32;20070;-67
2022/01/09 02:01:11;;;;;;;0.40;0.40;;;0.30;99.90;;;;;;4444501;32;20064;-68
2022/01/09 02:03:38;;;;;;;0.52;0.52;;;0.40;99.90;;;;;;4442892;32;20065;-67
2022/01/09 02:06:05;;;;;;;0.70;0.70;;;0.30;99.90;;;;;;4435572;32;20192;-67
2022/01/09 02:08:31;;;;;;;1.73;0.90;;;0.30;99.90;;;;;;4444358;32;20073;-67
2022/01/09 02:10:57;;;;;;;0.50;0.50;;;0.20;99.90;;;;;;4442608;32;20064;-67
2022/01/09 02:13:22;;;;;;;0.77;0.77;;;0.20;99.90;;;;;;4443667;32;20077;-67
2022/01/09 02:15:48;;;;;;;0.50;0.50;;;0.10;99.90;;;;;;4445644;32;20061;-67
2022/01/09 02:18:17;;;;;;;0.80;0.80;;;0.10;99.90;;;;;;4446930;32;20073;-67
2022/01/09 02:20:43;;;;;;;1.92;1.15;;;0.20;99.90;;;;;;4445807;32;20076;-67
2022/01/09 02:23:10;;;;;;;0.30;0.30;;;0.20;99.90;;;;;;4442345;32;20636;-67
2022/01/09 02:25:37;;;;;;;0.40;0.40;;;0.30;99.90;;;;;;4437828;32;20113;-67
2022/01/09 02:28:04;;;;;;;2.50;1.70;;;0.30;99.90;;;;;;4434727;32;20061;-67
2022/01/09 02:30:32;;;;;;;0.40;0.40;;;0.30;99.90;;;;;;4438938;32;20065;-67
2022/01/09 02:32:59;;;;;;;0.80;0.80;;;0.30;99.90;;;;;;4444005;32;20117;-67
2022/01/09 02:35:26;;;;;;;0.50;0.50;;;0.20;99.90;;;;;;4432627;32;20517;-66
2022/01/09 02:37:51;;;;;;;0.47;0.47;;;0.20;99.90;;;;;;4446113;32;20081;-67
2022/01/09 02:40:17;;;;;;;0.75;0.70;;;0.30;99.90;;;;;;4442842;32;20076;-67
2022/01/09 02:42:43;;;;;;;0.50;0.50;;;0.20;99.90;;;;;;4444646;32;20070;-66
2022/01/09 02:45:09;;;;;;;11.88;1.30;;;0.20;99.90;;;;;;4442948;32;20260;-67
2022/01/09 02:47:36;;;;;;;2.35;0.77;;;0.20;99.90;;;;;;4443539;32;20119;-67
2022/01/09 02:50:27;;;;;;;1.50;1.08;;;0.30;99.90;;;;;;4439283;32;20105;-67
2022/01/09 02:52:53;;;;;;;0.40;0.40;;;0.30;99.90;;;;;;4433064;32;20136;-67
2022/01/09 02:55:20;;;;;;;2.70;1.60;;;0.30;99.90;;;;;;4442611;32;20179;-67
2022/01/09 02:57:48;;;;;;;0.40;0.40;;;0.20;99.90;;;;;;4437849;32;20073;-67
2022/01/09 03:00:16;;;;;;;0.52;0.52;;;0.20;99.90;;;;;;4435803;32;20089;-67
2022/01/09 03:02:43;;;;;;;0.60;0.60;;;0.20;99.90;;;;;;4442119;32;20064;-66
2022/01/09 03:05:09;;;;;;;0.52;0.50;;;0.20;99.90;;;;;;4442005;32;20065;-68
2022/01/09 03:07:35;;;;;;;0.73;0.73;;;0.20;99.90;;;;;;4442500;32;20057;-67
2022/01/09 03:10:01;;;;;;;0.40;0.40;;;0.20;99.90;;;;;;4445992;32;20555;-67
2022/01/09 03:12:27;;;;;;;0.60;0.60;;;0.30;99.90;;;;;;4442952;32;20174;-67
2022/01/09 03:14:52;;;;;;;0.40;0.40;;;0.30;99.90;;;;;;4443502;32;20096;-67
2022/01/09 03:17:18;;;;;;;0.40;0.40;;;0.40;99.90;;;;;;4442178;32;20112;-68
2022/01/09 03:19:43;;;;;;;0.50;0.50;;;0.30;99.90;;;;;;4433463;32;20069;-68
2022/01/09 03:22:09;;;;;;;0.50;0.50;;;0.30;99.90;;;;;;4443029;32;20081;-67
2022/01/09 03:24:34;;;;;;;0.68;0.68;;;0.40;99.90;;;;;;4442325;32;20068;-67
2022/01/09 03:27:01;;;;;;;0.40;0.40;;;0.40;99.90;;;;;;4441725;32;20053;-67
2022/01/09 03:29:27;;;;;;;0.35;0.35;;;0.30;99.90;;;;;;4441032;32;20110;-68
2022/01/09 03:31:53;;;;;;;1.02;0.93;;;0.40;99.90;;;;;;4440327;32;20426;-67
2022/01/09 03:34:18;;;;;;;0.50;0.50;;;0.30;99.90;;;;;;4432845;32;20073;-67
2022/01/09 03:36:44;;;;;;;3.85;2.08;;;0.30;99.90;;;;;;4445389;32;20077;-67
2022/01/09 03:39:10;;;;;;;0.50;0.50;;;0.30;99.90;;;;;;4442373;32;20065;-66
2022/01/09 03:41:35;;;;;;;0.50;0.50;;;0.30;99.90;;;;;;4444701;32;20076;-67
2022/01/09 03:44:01;;;;;;;0.40;0.40;;;0.20;99.90;;;;;;4440163;32;20423;-67
2022/01/09 03:46:26;;;;;;;0.55;0.55;;;0.30;99.90;;;;;;4442790;32;20069;-67
2022/01/09 03:48:52;;;;;;;0.40;0.40;;;0.20;99.90;;;;;;4442514;32;20122;-67
2022/01/09 03:51:17;;;;;;;1.85;1.00;;;0.20;99.90;;;;;;4442937;32;20390;-67
2022/01/09 03:53:43;;;;;;;0.40;0.40;;;0.30;99.90;;;;;;4442175;32;20092;-68
2022/01/09 03:56:08;;;;;;;0.50;0.50;;;0.30;99.90;;;;;;4441879;32;20097;-68
2022/01/09 03:58:36;;;;;;;0.60;0.60;;;0.30;99.90;;;;;;4443981;32;20111;-69
2022/01/09 04:01:06;;;;;;;0.50;0.50;;;0.40;99.90;;;;;;4441825;32;20116;-68
2022/01/09 04:03:33;;;;;;;0.50;0.50;;;0.40;99.90;;;;;;4441581;32;20549;-68
2022/01/09 04:06:00;;;;;;;2.25;0.98;;;0.40;99.90;;;;;;4441363;32;20087;-68
2022/01/09 04:08:26;;;;;;;0.52;0.52;;;0.50;99.90;;;;;;4443986;32;20073;-67
2022/01/09 04:10:52;;;;;;;1.27;1.20;;;0.50;99.90;;;;;;4436418;32;20454;-67
2022/01/09 04:13:17;;;;;;;0.47;0.47;;;0.50;99.90;;;;;;4438427;32;20068;-67
2022/01/09 04:15:49;;;;;;;0.40;0.40;;;0.40;99.90;;;;;;4436803;32;20243;-67
2022/01/09 04:18:17;;;;;;;0.50;0.50;;;0.50;99.90;;;;;;4424651;32;20106;-68
2022/01/09 04:20:42;;;;;;;0.50;0.50;;;0.50;99.90;;;;;;4441585;32;20068;-67
2022/01/09 04:23:08;;;;;;;0.60;0.60;;;0.40;99.90;;;;;;4429913;32;22396;-67
2022/01/09 04:25:34;;;;;;;0.43;0.43;;;0.40;99.90;;;;;;4442990;32;20070;-69
2022/01/09 04:27:59;;;;;;;0.75;0.75;;;0.40;99.90;;;;;;4441085;32;20095;-67
2022/01/09 04:30:25;;;;;;;0.57;0.57;;;0.50;99.90;;;;;;4441206;32;20398;-66
2022/01/09 04:32:50;;;;;;;0.47;0.47;;;0.50;99.90;;;;;;4444372;32;102717;-67
2022/01/09 04:35:16;;;;;;;0.50;0.50;;;0.50;99.90;;;;;;4441850;32;20658;-67
2022/01/09 04:37:41;;;;;;;0.40;0.40;;;0.60;99.90;;;;;;4432509;32;20072;-66
2022/01/09 04:40:10;;;;;;;0.98;0.80;;;0.50;99.90;;;;;;4441093;32;20061;-67
2022/01/09 04:42:41;;;;;;;0.40;0.40;;;0.50;99.90;;;;;;4441856;32;20057;-68
2022/01/09 04:45:08;;;;;;;0.50;0.50;;;0.50;99.90;;;;;;4442898;32;20198;-67
2022/01/09 04:47:34;;;;;;;0.40;0.40;;;0.50;99.90;;;;;;4434907;32;20106;-68
2022/01/09 04:50:01;;;;;;;0.82;0.82;;;0.50;99.90;;;;;;4443534;32;20049;-68
2022/01/09 04:52:33;;;;;;;0.50;0.50;;;0.50;99.90;;;;;;4439564;32;20137;-67
2022/01/09 04:54:58;;;;;;;1.55;1.40;;;0.40;99.90;;;;;;4441580;32;20061;-67
2022/01/09 04:57:24;;;;;;;0.40;0.40;;;0.40;99.90;;;;;;4439127;32;20150;-67
2022/01/09 04:59:49;;;;;;;0.40;0.40;;;0.50;99.90;;;;;;4440792;32;20124;-67
2022/01/09 05:02:15;;;;;;;0.65;0.65;;;0.60;99.90;;;;;;4440701;32;20053;-67
2022/01/09 05:04:40;;;;;;;0.40;0.40;;;0.60;99.90;;;;;;4442271;32;20564;-67
2022/01/09 05:07:06;;;;;;;0.62;0.62;;;0.60;99.90;;;;;;4442374;32;20061;-67
2022/01/09 05:09:31;;;;;;;0.40;0.40;;;0.50;99.90;;;;;;4448107;32;20554;-67
2022/01/09 05:11:57;;;;;;;2.85;1.02;;;0.50;99.90;;;;;;4435490;32;20084;-66
2022/01/09 05:14:23;;;;;;;12.43;1.95;;;0.50;99.90;;;;;;4438565;32;20073;-67
2022/01/09 05:16:49;;;;;;;0.40;0.40;;;0.50;99.90;;;;;;4431589;32;20473;-67
2022/01/09 05:19:19;;;;;;;0.40;0.40;;;0.40;99.90;;;;;;4433407;32;20514;-68
2022/01/09 05:21:45;;;;;;;0.40;0.40;;;0.50;99.90;;;;;;4443188;32;20072;-67
2022/01/09 05:24:11;;;;;;;0.40;0.40;;;0.60;99.90;;;;;;4435444;32;20074;-67
2022/01/09 05:26:37;;;;;;;0.47;0.47;;;0.60;99.90;;;;;;4429877;32;20077;-67
2022/01/09 05:29:03;;;;;;;0.75;0.75;;;0.60;99.90;;;;;;4433983;32;20400;-66
2022/01/09 05:31:28;;;;;;;0.30;0.30;;;0.60;99.90;;;;;;4443619;32;20126;-68
2022/01/09 05:33:54;;;;;;;0.40;0.40;;;0.60;99.90;;;;;;4434033;32;20090;-67
2022/01/09 05:36:19;;;;;;;0.68;0.68;;;0.60;99.90;;;;;;4444046;32;20154;-67
2022/01/09 05:38:45;;;;;;;0.40;0.40;;;0.60;99.90;;;;;;4443822;32;20070;-67
2022/01/09 05:41:10;;;;;;;0.52;0.52;;;0.60;99.90;;;;;;4444827;32;20517;-68
2022/01/09 05:43:38;;;;;;;0.40;0.40;;;0.60;99.90;;;;;;4438299;32;20065;-67
2022/01/09 05:46:04;;;;;;;0.75;0.75;;;0.60;99.90;;;;;;4444937;32;20074;-67
2022/01/09 05:48:29;;;;;;;0.65;0.65;;;0.70;99.90;;;;;;4446335;32;20068;-68
2022/01/09 05:50:55;;;;;;;3.60;1.45;;;0.70;99.90;;;;;;4442469;32;20573;-67
2022/01/09 05:53:20;;;;;;;0.40;0.40;;;0.70;99.90;;;;;;4443027;32;20062;-66
2022/01/09 05:55:47;;;;;;;0.77;0.77;;;0.70;99.90;;;;;;4443138;32;20529;-68
2022/01/09 05:58:13;;;;;;;0.40;0.40;;;0.60;99.90;;;;;;4442456;32;20097;-68
2022/01/09 06:00:38;;;;;;;0.50;0.50;;;0.70;99.90;;;;;;4441387;32;20069;-66
2022/01/09 06:03:04;;;;;;;0.62;0.60;;;0.70;99.90;;;;;;4443730;32;20061;-67
2022/01/09 06:05:29;;;;;;;0.40;0.40;;;0.80;99.90;;;;;;4443055;32;20136;-67
2022/01/09 06:07:55;;;;;;;0.32;0.32;;;0.80;99.90;;;;;;4442397;32;20081;-67
2022/01/09 06:10:21;;;;;;;0.40;0.40;;;0.80;99.90;;;;;;4444247;32;20073;-68
2022/01/09 06:12:46;;;;;;;1.02;1.02;;;0.90;99.90;;;;;;4445937;32;20084;-67
2022/01/09 06:15:12;;;;;;;0.40;0.40;;;0.90;99.90;;;;;;4438622;32;20120;-66
2022/01/09 06:17:39;;;;;;;0.37;0.37;;;0.90;99.90;;;;;;4443338;32;20447;-67
2022/01/09 06:20:06;;;;;;;0.40;0.40;;;0.80;99.90;;;;;;4442273;32;20111;-67
2022/01/09 06:22:32;;;;;;;0.40;0.40;;;0.80;99.90;;;;;;4443260;32;20212;-67
2022/01/09 06:24:57;;;;;;;0.80;0.80;;;0.80;99.90;;;;;;4443725;32;20443;-66
2022/01/09 06:27:23;;;;;;;0.52;0.52;;;0.90;99.90;;;;;;4443911;32;20088;-67
2022/01/09 06:29:49;;;;;;;0.45;0.45;;;1.00;99.90;;;;;;4441115;32;20136;-68
2022/01/09 06:32:14;;;;;;;0.55;0.55;;;1.10;99.90;;;;;;4442522;32;20144;-67
2022/01/09 06:34:41;;;;;;;0.40;0.40;;;1.00;99.90;;;;;;4444280;32;20090;-67
2022/01/09 06:37:07;;;;;;;0.50;0.50;;;0.90;99.90;;;;;;4443155;32;20061;-67
2022/01/09 06:39:32;;;;;;;0.40;0.40;;;0.90;99.90;;;;;;4443288;32;20517;-67
2022/01/09 06:41:58;;;;;;;0.35;0.35;;;1.00;99.90;;;;;;4445305;32;20125;-68
2022/01/09 06:44:24;;;;;;;0.40;0.40;;;1.00;99.90;;;;;;4441470;32;20443;-67
2022/01/09 06:46:49;;;;;;;0.40;0.40;;;1.00;99.90;;;;;;4447964;32;20346;-67
2022/01/09 06:49:15;;;;;;;0.68;0.68;;;1.00;99.90;;;;;;4443232;32;20069;-67
2022/01/09 06:51:40;;;;;;;0.57;0.57;;;1.00;99.90;;;;;;4441028;32;20542;-68
2022/01/09 06:54:06;;;;;;;0.40;0.40;;;1.00;99.90;;;;;;4442329;32;20064;-67
2022/01/09 06:56:31;;;;;;;0.40;0.40;;;1.00;99.90;;;;;;4436426;32;20078;-67
2022/01/09 06:58:57;;;;;;;0.65;0.45;;;1.00;99.90;;;;;;4437481;32;20145;-67
2022/01/09 07:01:22;;;;;;;0.32;0.32;;;1.00;99.90;;;;;;4434848;32;20101;-67
2022/01/09 07:03:48;;;;;;;0.50;0.50;;;1.00;99.90;;;;;;4440820;32;20057;-67
2022/01/09 07:06:13;;;;;;;0.50;0.50;;;1.10;99.90;;;;;;4440261;32;20081;-67
2022/01/09 07:08:39;;;;;;;0.77;0.77;;;1.10;99.90;;;;;;4443013;32;20431;-67
2022/01/09 07:11:05;;;;;;;0.50;0.50;;;1.20;99.90;;;;;;4442999;32;20069;-67
2022/01/09 07:13:32;;;;;;;0.85;0.85;;;1.20;99.90;;;;;;4443705;32;20533;-67
2022/01/09 07:15:57;;;;;;;0.62;0.62;;;1.30;99.90;;;;;;4444088;32;20093;-67
2022/01/09 07:18:23;;;;;;;0.95;0.95;;;1.20;99.90;;;;;;4440515;32;20113;-67
2022/01/09 07:20:50;;;;;;;0.40;0.40;;;1.10;99.90;;;;;;4443738;32;20073;-67
2022/01/09 07:23:15;;;;;;;0.30;0.30;;;1.20;99.90;;;;;;4436068;32;20554;-66
2022/01/09 07:25:41;;;;;;;1.37;1.15;;;1.10;99.90;;;;;;4441816;32;20434;-66
2022/01/09 07:28:06;;;;;;;0.40;0.40;;;1.20;99.90;;;;;;4441517;32;20559;-67
2022/01/09 07:30:32;;;;;;;0.57;0.57;;;1.20;99.90;;;;;;4430905;32;20085;-67
2022/01/09 07:32:58;;;;;;;0.68;0.55;;;1.20;99.90;;;;;;4444848;32;20131;-67
2022/01/09 07:35:24;;;;;;;1.20;1.10;;;1.30;99.90;;;;;;4443839;32;20094;-67
2022/01/09 07:37:49;;;;;;;0.82;0.82;;;1.30;99.90;;;;;;4444309;32;20534;-67
2022/01/09 07:40:16;;;;;;;0.60;0.60;;;1.20;99.90;;;;;;4433822;32;20061;-68
2022/01/09 07:42:42;;;;;;;0.45;0.45;;;1.20;99.90;;;;;;4438859;32;20388;-66
2022/01/09 07:45:08;;;;;;;0.37;0.37;;;1.30;99.90;;;;;;4434538;32;20093;-67
2022/01/09 07:47:35;;;;;;;0.40;0.40;;;1.30;99.90;;;;;;4441311;32;20065;-68
2022/01/09 07:50:00;;;;;;;0.60;0.60;;;1.40;99.90;;;;;;4441905;32;20580;-67
2022/01/09 07:52:26;;;;;;;0.40;0.40;;;1.40;99.90;;;;;;4441543;32;20102;-67
2022/01/09 07:54:51;;;;;;;0.50;0.50;;;1.40;99.90;;;;;;4441576;32;20102;-67
2022/01/09 07:57:17;;;;;;;0.95;0.80;;;1.40;99.90;;;;;;4439356;32;20068;-67
2022/01/09 07:59:43;;;;;;;0.50;0.50;;;1.40;99.90;;;;;;4441658;32;20085;-66
2022/01/09 08:02:09;;;;;;;0.40;0.40;;;1.40;99.90;;;;;;4441787;32;20568;-66
2022/01/09 08:04:34;;;;;;;0.75;0.75;;;1.40;99.90;;;;;;4432211;32;20130;-66
2022/01/09 08:07:00;;;;;;;0.40;0.40;;;1.40;99.90;;;;;;4434371;32;20517;-66
2022/01/09 08:09:26;;;;;;;0.40;0.40;;;1.40;99.90;;;;;;4443318;32;20069;-66
2022/01/09 08:11:51;;;;;;;0.70;0.70;;;1.50;99.90;;;;;;4442755;32;20069;-66
2022/01/09 08:14:17;;;;;;;0.40;0.40;;;1.50;99.90;;;;;;4444455;32;20081;-66
2022/01/09 08:16:42;;;;;;;0.40;0.40;;;1.50;99.90;;;;;;4442194;32;20080;-66
2022/01/09 08:19:08;;;;;;;0.75;0.75;;;1.40;99.90;;;;;;4441664;32;20069;-66
2022/01/09 08:21:33;;;;;;;0.40;0.40;;;1.50;99.90;;;;;;4446782;32;20128;-66
2022/01/09 08:23:59;;;;;;;0.57;0.57;;;1.50;99.90;;;;;;4440570;32;20100;-67
2022/01/09 08:26:24;;;;;;;2.15;0.85;;;1.40;99.90;;;;;;4436010;32;20065;-67
2022/01/09 08:28:51;;;;;;;0.50;0.50;;;1.40;99.90;;;;;;4440408;32;20076;-67
2022/01/09 08:31:17;;;;;;;0.90;0.68;;;1.50;99.90;;;;;;4440608;32;20061;-66
2022/01/09 08:33:44;;;;;;;0.55;0.55;;;1.50;99.90;;;;;;4440156;32;20089;-66
2022/01/09 08:36:10;;;;;;;0.50;0.50;;;1.60;99.90;;;;;;4440949;32;20076;-67
2022/01/09 08:38:35;;;;;;;0.93;0.93;;;1.60;99.90;;;;;;4441621;32;20587;-67
2022/01/09 08:41:01;;;;;;;2.47;1.25;;;1.50;99.90;;;;;;4440436;32;20814;-67
2022/01/09 08:43:27;;;;;;;0.73;0.73;;;1.50;99.90;;;;;;4442556;32;20082;-67
2022/01/09 08:45:52;;;;;;;0.75;0.75;;;1.50;99.90;;;;;;4442036;32;20080;-67
2022/01/09 08:48:17;;;;;;;0.40;0.40;;;1.50;99.90;;;;;;4442056;32;20061;-67
2022/01/09 08:50:44;;;;;;;0.50;0.50;;;1.60;99.90;;;;;;4441912;32;20187;-67
2022/01/09 08:53:09;;;;;;;1.35;0.77;;;1.60;99.90;;;;;;4433626;32;20097;-67
2022/01/09 08:55:35;;;;;;;5.87;0.85;;;1.60;99.90;;;;;;4436267;32;20061;-67
2022/01/09 08:58:01;;;;;;;0.32;0.32;;;1.60;99.90;;;;;;4445199;32;20069;-67
2022/01/09 09:00:27;;;;;;;0.85;0.85;;;1.60;99.90;;;;;;4441160;32;20143;-67
2022/01/09 09:02:52;;;;;;;2.20;0.70;;;1.70;99.90;;;;;;4435104;32;20061;-66
2022/01/09 09:05:18;;;;;;;0.77;0.77;;;1.70;99.90;;;;;;4443509;32;20250;-65
2022/01/09 09:07:44;;;;;;;0.40;0.40;;;1.80;99.90;;;;;;4440109;32;20271;-67
2022/01/09 09:10:10;;;;;;;3.30;1.15;;;1.90;99.90;;;;;;4443829;32;20070;-67
2022/01/09 09:12:35;;;;;;;0.45;0.45;;;1.90;99.90;;;;;;4432102;32;20062;-67
2022/01/09 09:15:03;;;;;;;0.50;0.50;;;1.80;99.90;;;;;;4442786;32;20402;-66
2022/01/09 09:17:30;;;;;;;0.60;0.60;;;1.90;99.90;;;;;;4437565;32;20077;-66
2022/01/09 09:19:55;;;;;;;0.40;0.40;;;1.90;99.90;;;;;;4435907;32;20084;-66
2022/01/09 09:22:21;;;;;;;0.60;0.60;;;2.00;99.90;;;;;;4444455;32;20105;-67
2022/01/09 09:24:48;;;;;;;0.40;0.40;;;1.90;99.90;;;;;;4443368;32;20064;-66
2022/01/09 09:27:14;;;;;;;0.32;0.32;;;1.90;99.90;;;;;;4435672;32;20541;-66
2022/01/09 09:29:40;;;;;;;0.52;0.52;;;2.00;99.90;;;;;;4443315;32;20135;-66
2022/01/09 09:32:05;;;;;;;0.43;0.43;;;2.00;99.90;;;;;;4444967;32;20135;-66
2022/01/09 09:34:31;;;;;;;0.57;0.57;;;2.00;99.90;;;;;;4444133;32;20109;-67
2022/01/09 09:36:56;;;;;;;1.65;0.65;;;1.80;99.90;;;;;;4433120;32;20098;-66
2022/01/09 09:39:22;;;;;;;0.43;0.43;;;1.80;99.90;;;;;;4443640;32;20516;-67
2022/01/09 09:41:49;;;;;;;1.00;0.98;;;1.90;99.90;;;;;;4441563;32;20061;-66
2022/01/09 09:44:15;;;;;;;3.42;1.40;;;2.00;99.90;;;;;;4444008;32;20084;-66
2022/01/09 09:46:48;;;;;;;0.40;0.40;;;1.90;99.90;;;;;;4442700;32;20112;-66
2022/01/09 09:49:15;;;;;;;0.62;0.62;;;2.10;99.90;;;;;;4441828;32;20337;-66
2022/01/09 09:51:40;;;;;;;0.40;0.40;;;2.10;99.90;;;;;;4445613;32;20089;-67
2022/01/09 09:54:06;;;;;;;0.45;0.45;;;2.00;99.90;;;;;;4443844;32;20068;-66
2022/01/09 09:56:31;;;;;;;0.55;0.55;;;2.00;99.90;;;;;;4444525;32;20084;-66
2022/01/09 09:58:59;;;;;;;0.35;0.35;;;2.10;99.90;;;;;;4436077;32;20065;-66
2022/01/09 10:01:28;;;;;;;0.70;0.70;;;2.10;99.90;;;;;;4434452;32;20065;-66
2022/01/09 10:03:56;;;;;;;0.70;0.70;;;2.20;99.90;;;;;;4439105;32;20430;-67
2022/01/09 10:06:41;;;;;;;0.40;0.40;;;2.30;99.90;;;;;;4443285;32;20081;-67
2022/01/09 10:09:09;;;;;;;0.75;0.75;;;2.30;99.90;;;;;;4437988;32;20465;-67
2022/01/09 10:11:51;;;;;;;0.50;0.50;;;2.30;99.90;;;;;;4445288;32;20414;-67
2022/01/09 10:14:26;;;;;;;0.47;0.47;;;2.40;99.90;;;;;;4442851;32;20092;-66
2022/01/09 10:17:11;;;;;;;0.85;0.85;;;2.50;99.90;;;;;;4444879;32;20065;-66
2022/01/09 10:19:42;;;;;;;0.47;0.47;;;2.50;99.90;;;;;;4443216;32;20112;-66
2022/01/09 10:22:21;;;;;;;0.40;0.40;;;2.60;99.90;;;;;;4444804;32;20119;-66
2022/01/09 10:24:47;;;;;;;0.57;0.57;;;2.70;99.90;;;;;;4438011;32;20168;-67
2022/01/09 10:27:26;;;;;;;0.40;0.40;;;2.70;99.90;;;;;;4437130;32;20078;-67
2022/01/09 10:29:54;;;;;;;0.40;0.40;;;2.60;99.90;;;;;;4430622;32;20115;-66
2022/01/09 10:32:20;;;;;;;1.52;1.17;;;2.70;99.90;;;;;;4435509;32;20061;-66
2022/01/09 10:35:03;;;;;;;0.35;0.35;;;2.80;99.90;;;;;;4440188;32;20592;-67
2022/01/09 10:37:29;;;;;;;0.55;0.55;;;2.80;99.90;;;;;;4441492;32;20088;-67
2022/01/09 10:39:57;;;;;;;0.50;0.50;;;2.80;99.90;;;;;;4444121;32;20143;-68
2022/01/09 10:42:23;;;;;;;0.73;0.73;;;2.80;99.90;;;;;;4443403;32;20691;-67
2022/01/09 10:44:48;;;;;;;0.90;0.70;;;3.00;99.90;;;;;;4444909;32;20120;-68
2022/01/09 10:47:16;;;;;;;0.30;0.30;;;3.00;99.90;;;;;;4440473;32;20120;-67
2022/01/09 10:49:49;;;;;;;0.40;0.40;;;3.10;99.90;;;;;;4443204;32;20542;-68
2022/01/09 10:52:25;;;;;;;0.95;0.95;;;3.10;99.90;;;;;;4441843;32;20081;-68
2022/01/09 10:54:54;;;;;;;0.32;0.32;;;3.20;99.90;;;;;;4446371;32;20431;-67
2022/01/09 10:57:23;;;;;;;0.25;0.25;;;3.00;99.90;;;;;;4444464;32;20516;-67
2022/01/09 10:59:50;;;;;;;0.50;0.50;;;3.00;99.90;;;;;;4444273;32;20078;-66
2022/01/09 11:02:16;;;;;;;0.35;0.35;;;3.10;99.90;;;;;;4442662;32;21357;-67
2022/01/09 11:04:43;;;;;;;0.43;0.43;;;3.10;99.90;;;;;;4440523;32;20069;-67
2022/01/09 11:07:10;;;;;;;0.47;0.47;;;3.20;99.90;;;;;;4429630;32;20141;-67
2022/01/09 11:09:37;;;;;;;0.70;0.70;;;3.30;99.90;;;;;;4442294;32;20476;-67
2022/01/09 11:12:06;;;;;;;0.65;0.65;;;3.20;99.90;;;;;;4443780;32;20061;-67
2022/01/09 11:14:36;;;;;;;0.30;0.30;;;3.50;99.90;;;;;;4442342;32;20089;-67
2022/01/09 11:17:05;;;;;;;0.62;0.62;;;3.50;99.90;;;;;;4444040;32;20500;-67
2022/01/09 11:19:32;;;;;;;0.50;0.50;;;3.50;99.90;;;;;;4434259;32;20093;-67
2022/01/09 11:22:00;;;;;;;0.43;0.43;;;3.70;99.90;;;;;;4443528;32;20090;-67
2022/01/09 11:24:42;;;;;;;1.08;0.82;;;3.70;99.90;;;;;;4441972;32;20420;-67
2022/01/09 11:27:20;;;;;;;2.22;1.05;;;3.80;99.90;;;;;;4440101;32;20651;-67
2022/01/09 11:30:17;;;;;;;0.50;0.50;;;3.80;99.90;;;;;;4439815;32;20074;-67
2022/01/09 11:33:18;;;;;;;0.43;0.43;;;3.80;99.90;;;;;;4433495;32;20080;-67
2022/01/09 11:36:22;;;;;;;0.30;0.30;;;3.90;99.90;;;;;;4434253;32;20137;-66
2022/01/09 11:39:12;;;;;;;0.57;0.57;;;3.80;99.90;;;;;;4435743;32;20171;-66
2022/01/09 11:41:40;;;;;;;4.57;1.15;;;3.70;99.90;;;;;;4441807;32;20077;-66
2022/01/09 11:44:09;;;;;;;0.52;0.52;;;3.60;99.90;;;;;;4434290;32;20077;-66
2022/01/09 11:46:58;;;;;;;0.40;0.40;;;3.60;99.90;;;;;;4435634;32;20126;-66
2022/01/09 11:49:24;;;;;;;0.60;0.60;;;3.60;99.90;;;;;;4437474;32;20077;-66
2022/01/09 11:51:52;;;;;;;0.60;0.60;;;3.70;99.90;;;;;;4434856;32;20073;-66
2022/01/09 11:54:19;;;;;;;1.65;1.00;;;3.70;99.90;;;;;;4441399;32;20060;-66
2022/01/09 11:56:51;;;;;;;0.40;0.40;;;3.70;99.90;;;;;;4443857;32;20074;-66
2022/01/09 11:59:26;;;;;;;0.30;0.30;;;3.70;99.90;;;;;;4439490;32;20076;-67
2022/01/09 12:02:14;;;;;;;0.50;0.50;;;3.80;99.90;;;;;;4442507;32;20060;-67
2022/01/09 12:04:44;;;;;;;0.40;0.40;;;3.80;99.90;;;;;;4432170;32;20102;-67
2022/01/09 12:07:12;;;;;;;;;;;3.70;99.90;;;;;;4440129;32;20277;-67
2022/01/09 12:09:47;;;;;;;0.77;0.70;;;3.70;99.90;;;;;;4443199;32;19964;-66
2022/01/09 12:12:15;;;;;;;0.30;0.30;;;3.70;99.90;;;;;;4441495;32;20053;-66
2022/01/09 12:14:54;;;;;;;0.68;0.68;;;3.70;99.90;;;;;;4440737;32;20129;-66
2022/01/09 12:17:26;;;;;;;0.30;0.30;;;3.70;99.90;;;;;;4441328;32;20077;-66
2022/01/09 12:20:13;;;;;;;0.50;0.50;;;3.70;99.90;;;;;;4420919;32;20509;-66
2022/01/09 12:22:43;;;;;;;1.60;1.08;;;3.70;99.90;;;;;;4435554;32;20475;-66
2022/01/09 12:25:30;;;;;;;0.43;0.43;;;3.80;99.90;;;;;;4440882;32;20080;-67
2022/01/09 12:28:19;;;;;;;2.45;0.95;;;3.70;99.90;;;;;;4433344;32;20061;-66
2022/01/09 12:30:48;;;;;;;0.37;0.37;;;3.80;99.90;;;;;;4429095;32;20524;-67
2022/01/09 12:33:25;;;;;;;0.68;0.68;;;3.70;99.90;;;;;;4437231;32;20078;-67
2022/01/09 12:36:03;;;;;;;0.30;0.30;;;3.80;99.90;;;;;;4442331;32;20089;-67
2022/01/09 12:38:31;;;;;;;0.50;0.50;;;3.80;99.90;;;;;;4443263;32;20062;-67
2022/01/09 12:40:59;;;;;;;0.52;0.52;;;3.80;99.90;;;;;;4442971;32;20073;-66
2022/01/09 12:43:26;;;;;;;4.95;1.37;;;3.80;99.90;;;;;;4441455;32;20482;-67
2022/01/09 12:45:52;;;;;;;0.65;0.65;;;3.70;99.90;;;;;;4437683;32;20552;-67
2022/01/09 12:48:27;;;;;;;0.40;0.40;;;3.90;99.90;;;;;;4439418;32;20139;-67
2022/01/09 12:50:54;;;;;;;0.50;0.50;;;3.80;99.90;;;;;;4442921;32;20428;-67
2022/01/09 12:53:22;;;;;;;0.60;0.60;;;3.80;99.90;;;;;;4435595;32;20516;-67
2022/01/09 12:56:09;;;;;;;0.73;0.73;;;3.80;99.90;;;;;;4436089;32;20077;-68
2022/01/09 12:58:42;;;;;;;0.70;0.70;;;3.80;99.90;;;;;;4438555;32;20495;-67
2022/01/09 13:01:19;;;;;;;0.35;0.35;;;3.80;99.90;;;;;;4442187;32;20171;-67